Observations for Trim Market St
| Time | AQI | Temp °C | Hum % | Pres Pa | CO μg/m³ | H₂S μg/m³ | NO μg/m³ | NO₂ μg/m³ | O₃ μg/m³ | SO₂ μg/m³ | PM1 μg/m³ | PM2.5 μg/m³ | PM10 μg/m³ |
|---|---|---|---|---|---|---|---|---|---|---|---|---|---|
| Wednesday 12 August 2026 | |||||||||||||
| 05:16 | 2 | 19 | 68 | 56,514 | 0.07 | 0 | 1.29 | 14.03 | 64.22 | 0 | 3.56 | 5.12 | 7.53 |
| 05:12 | 2 | 19 | 68 | 56,557 | 0.08 | 0 | 1.29 | 15.44 | 60.9 | 0 | 2.14 | 4.64 | 6.89 |
| 05:11 | 2 | 19 | 68 | 56,560 | 0.07 | 0 | 1.29 | 13.85 | 61.64 | 0 | 3.56 | 5.12 | 7.53 |
| 05:06 | 2 | 19 | 68 | 56,615 | 0.07 | 0 | 1.29 | 18.83 | 66.64 | 0 | 2.85 | 4.64 | 6.89 |
| 05:00 | 2 | 19 | 67 | 56,692 | 0.07 | 0 | 1.28 | 16.25 | 59.14 | 0 | 3.56 | 5.63 | 8.17 |
| 04:57 | 2 | 19.1 | 67 | 56,715 | 0.06 | 0 | 1.29 | 12.88 | 63.02 | 0 | 3.56 | 4.65 | 8.17 |
| 04:56 | 2 | 19.1 | 67 | 56,723 | 0.06 | 0 | 1.3 | 12.07 | 68.05 | 0 | 2.85 | 5.63 | 8.82 |
| 04:55 | 2 | 19.1 | 67 | 56,735 | 0.06 | 0 | 1.37 | 14.23 | 64.98 | 0 | 2.85 | 5.14 | 8.17 |
| 04:54 | 2 | 19.1 | 67 | 56,746 | 0.07 | 0 | 1.3 | 10.98 | 69.34 | 0 | 2.14 | 4.16 | 6.89 |
| 04:53 | 2 | 19.1 | 67 | 56,750 | 0.07 | 0 | 1.32 | 13.11 | 66.71 | 0 | 4.28 | 5.64 | 8.17 |
| 04:52 | 2 | 19.1 | 67 | 56,758 | 0.06 | 0 | 1.41 | 12.62 | 67.68 | 0 | 2.14 | 4.66 | 7.53 |
| 04:51 | 2 | 19.1 | 67 | 56,777 | 0.07 | 0 | 1.3 | 16.6 | 61.91 | 0 | 2.85 | 5.15 | 7.53 |
| 04:50 | 2 | 19.1 | 67 | 56,794 | 0.07 | 0 | 1.29 | 12.73 | 63.41 | 0 | 2.85 | 5.15 | 8.82 |
| 04:49 | 2 | 19.1 | 67 | 56,805 | 0.07 | 0 | 1.29 | 14.03 | 63.53 | 0 | 2.14 | 3.68 | 6.24 |
| 04:48 | 2 | 19.1 | 67 | 56,815 | 0.06 | 0 | 1.29 | 11.33 | 71 | 0 | 3.56 | 5.15 | 7.53 |
| 04:47 | 2 | 19.1 | 67 | 56,812 | 0.06 | 0 | 1.27 | 14.81 | 59.92 | 0 | 2.85 | 5.15 | 8.82 |
| 04:46 | 2 | 19.2 | 67 | 56,820 | 0.07 | 0 | 1.28 | 12.54 | 66.03 | 0 | 2.85 | 4.66 | 8.17 |
| 04:45 | 2 | 19.1 | 67 | 56,834 | 0.07 | 0 | 1.29 | 12.62 | 63.78 | 0 | 2.14 | 4.66 | 6.89 |
| 04:44 | 2 | 19.1 | 67 | 56,846 | 0.07 | 0 | 1.29 | 12.84 | 70.08 | 0 | 3.56 | 5.16 | 8.82 |
| 04:38 | 2 | 19.1 | 67 | 56,866 | 0.08 | 0 | 1.28 | 29.81 | 58.74 | 0 | 2.85 | 5.17 | 7.53 |